sensor_id;sensor_type;location;lat;lon;timestamp;pressure;altitude;pressure_sealevel;temperature;humidity
23361;BME280;11852;50.082;18.554;2022-12-05T00:04:46;98902.5;;;2.0;88.28
23361;BME280;11852;50.082;18.554;2022-12-05T00:06:20;98904.5;;;1.96;88.28
23361;BME280;11852;50.082;18.554;2022-12-05T00:07:28;98900.0;;;1.98;88.21
23361;BME280;11852;50.082;18.554;2022-12-05T00:08:36;98898.5;;;1.99;88.17
23361;BME280;11852;50.082;18.554;2022-12-05T00:09:43;98902.5;;;2.03;88.24
23361;BME280;11852;50.082;18.554;2022-12-05T00:10:50;98902.0;;;2.02;88.13
23361;BME280;11852;50.082;18.554;2022-12-05T00:11:57;98902.5;;;2.05;88.07
23361;BME280;11852;50.082;18.554;2022-12-05T00:13:05;98902.5;;;2.06;87.97
23361;BME280;11852;50.082;18.554;2022-12-05T00:14:13;98903.0;;;2.07;87.98
23361;BME280;11852;50.082;18.554;2022-12-05T00:16:54;98903.0;;;2.07;87.98
23361;BME280;11852;50.082;18.554;2022-12-05T00:18:01;98901.0;;;2.15;87.71
23361;BME280;11852;50.082;18.554;2022-12-05T00:19:10;98897.0;;;2.02;88.17
23361;BME280;11852;50.082;18.554;2022-12-05T00:20:36;98899.5;;;1.96;88.17
23361;BME280;11852;50.082;18.554;2022-12-05T00:21:45;98898.5;;;2.03;87.91
23361;BME280;11852;50.082;18.554;2022-12-05T00:22:53;98894.99;;;1.93;88.29
23361;BME280;11852;50.082;18.554;2022-12-05T00:24:00;98896.5;;;2.0;88.06
23361;BME280;11852;50.082;18.554;2022-12-05T00:25:07;98898.0;;;2.11;87.74
23361;BME280;11852;50.082;18.554;2022-12-05T00:27:36;98898.0;;;2.11;87.74
23361;BME280;11852;50.082;18.554;2022-12-05T00:28:44;98899.0;;;1.97;88.14
23361;BME280;11852;50.082;18.554;2022-12-05T00:29:52;98902.0;;;1.95;88.12
23361;BME280;11852;50.082;18.554;2022-12-05T00:31:05;98900.0;;;1.92;88.35
23361;BME280;11852;50.082;18.554;2022-12-05T00:32:13;98898.5;;;1.97;88.05
23361;BME280;11852;50.082;18.554;2022-12-05T00:33:20;98902.5;;;2.05;87.87
23361;BME280;11852;50.082;18.554;2022-12-05T00:34:29;98900.0;;;2.05;87.92
23361;BME280;11852;50.082;18.554;2022-12-05T00:38:59;98906.5;;;1.98;88.08
23361;BME280;11852;50.082;18.554;2022-12-05T00:40:07;98901.5;;;2.08;87.96
23361;BME280;11852;50.082;18.554;2022-12-05T00:41:55;98901.5;;;2.08;87.96
23361;BME280;11852;50.082;18.554;2022-12-05T00:43:03;98890.5;;;2.08;87.76
23361;BME280;11852;50.082;18.554;2022-12-05T00:44:22;98888.0;;;2.07;87.76
23361;BME280;11852;50.082;18.554;2022-12-05T00:45:30;98888.5;;;1.99;88.03
23361;BME280;11852;50.082;18.554;2022-12-05T00:46:38;98888.0;;;2.02;87.94
23361;BME280;11852;50.082;18.554;2022-12-05T00:47:46;98885.5;;;2.1;87.77
23361;BME280;11852;50.082;18.554;2022-12-05T00:51:52;98884.0;;;2.07;87.96
23361;BME280;11852;50.082;18.554;2022-12-05T00:53:00;98888.5;;;2.05;87.87
23361;BME280;11852;50.082;18.554;2022-12-05T00:54:20;98887.5;;;2.06;87.87
23361;BME280;11852;50.082;18.554;2022-12-05T00:55:28;98890.0;;;1.99;88.21
23361;BME280;11852;50.082;18.554;2022-12-05T00:56:35;98894.0;;;2.01;87.99
23361;BME280;11852;50.082;18.554;2022-12-05T00:59:56;98894.0;;;2.01;87.99
23361;BME280;11852;50.082;18.554;2022-12-05T01:01:24;98897.5;;;2.02;87.99
23361;BME280;11852;50.082;18.554;2022-12-05T01:05:49;98901.0;;;2.19;87.68
23361;BME280;11852;50.082;18.554;2022-12-05T01:06:58;98907.99;;;2.32;87.45
23361;BME280;11852;50.082;18.554;2022-12-05T01:11:30;98910.5;;;2.36;87.38
23361;BME280;11852;50.082;18.554;2022-12-05T01:16:16;98893.5;;;2.36;87.77
23361;BME280;11852;50.082;18.554;2022-12-05T01:17:24;98889.0;;;2.11;87.96
23361;BME280;11852;50.082;18.554;2022-12-05T01:18:33;98888.0;;;2.0;88.29
23361;BME280;11852;50.082;18.554;2022-12-05T01:19:42;98887.0;;;2.12;87.88
23361;BME280;11852;50.082;18.554;2022-12-05T01:23:02;98887.0;;;2.12;87.88
23361;BME280;11852;50.082;18.554;2022-12-05T01:24:10;98887.5;;;2.23;87.68
23361;BME280;11852;50.082;18.554;2022-12-05T01:25:19;98890.0;;;2.17;87.88
23361;BME280;11852;50.082;18.554;2022-12-05T01:26:26;98890.0;;;2.16;87.86
23361;BME280;11852;50.082;18.554;2022-12-05T01:27:33;98892.5;;;2.12;87.99
23361;BME280;11852;50.082;18.554;2022-12-05T01:30:42;98892.5;;;2.12;87.99
23361;BME280;11852;50.082;18.554;2022-12-05T01:31:49;98889.0;;;2.26;87.73
23361;BME280;11852;50.082;18.554;2022-12-05T01:32:58;98889.5;;;2.22;87.78
23361;BME280;11852;50.082;18.554;2022-12-05T01:36:57;98893.0;;;2.2;87.83
23361;BME280;11852;50.082;18.554;2022-12-05T01:38:05;98888.5;;;2.26;87.65
23361;BME280;11852;50.082;18.554;2022-12-05T01:40:22;98888.5;;;2.26;87.65
23361;BME280;11852;50.082;18.554;2022-12-05T01:41:30;98898.0;;;2.16;87.88
23361;BME280;11852;50.082;18.554;2022-12-05T01:42:37;98903.5;;;2.18;87.81
23361;BME280;11852;50.082;18.554;2022-12-05T01:45:06;98901.0;;;2.36;87.51
23361;BME280;11852;50.082;18.554;2022-12-05T01:50:27;98891.0;;;2.25;87.72
23361;BME280;11852;50.082;18.554;2022-12-05T01:51:35;98895.49;;;2.24;87.79
23361;BME280;11852;50.082;18.554;2022-12-05T01:52:42;98900.5;;;2.17;87.93
23361;BME280;11852;50.082;18.554;2022-12-05T01:53:50;98903.5;;;2.31;87.54
23361;BME280;11852;50.082;18.554;2022-12-05T01:57:10;98903.5;;;2.31;87.54
23361;BME280;11852;50.082;18.554;2022-12-05T01:58:18;98899.0;;;2.4;87.54
23361;BME280;11852;50.082;18.554;2022-12-05T02:01:29;98902.5;;;2.4;87.47
23361;BME280;11852;50.082;18.554;2022-12-05T02:02:39;98885.5;;;2.43;87.31
23361;BME280;11852;50.082;18.554;2022-12-05T02:03:47;98884.0;;;2.41;87.4
23361;BME280;11852;50.082;18.554;2022-12-05T02:05:04;98884.5;;;2.37;87.54
23361;BME280;11852;50.082;18.554;2022-12-05T02:06:08;98891.5;;;2.49;87.19
23361;BME280;11852;50.082;18.554;2022-12-05T02:07:21;98903.5;;;2.49;87.14
23361;BME280;11852;50.082;18.554;2022-12-05T02:08:29;98909.5;;;2.38;87.37
23361;BME280;11852;50.082;18.554;2022-12-05T02:09:37;98911.5;;;2.36;87.37
23361;BME280;11852;50.082;18.554;2022-12-05T02:30:21;98909.5;;;2.45;87.26
23361;BME280;11852;50.082;18.554;2022-12-05T02:31:32;98913.0;;;2.56;87.1
23361;BME280;11852;50.082;18.554;2022-12-05T02:44:49;98901.0;;;2.35;87.39
23361;BME280;11852;50.082;18.554;2022-12-05T02:49:34;98898.0;;;2.29;87.51
23361;BME280;11852;50.082;18.554;2022-12-05T02:50:41;98908.5;;;2.34;87.38
23361;BME280;11852;50.082;18.554;2022-12-05T02:55:20;98903.5;;;2.34;87.38
23361;BME280;11852;50.082;18.554;2022-12-05T02:58:31;98903.5;;;2.34;87.38
23361;BME280;11852;50.082;18.554;2022-12-05T03:02:42;98899.5;;;2.34;87.38
23361;BME280;11852;50.082;18.554;2022-12-05T03:03:50;98892.01;;;2.43;87.26
23361;BME280;11852;50.082;18.554;2022-12-05T03:08:12;98885.0;;;2.19;87.9
23361;BME280;11852;50.082;18.554;2022-12-05T03:12:49;98864.0;;;2.19;87.69
23361;BME280;11852;50.082;18.554;2022-12-05T03:13:55;98861.0;;;2.37;87.51
23361;BME280;11852;50.082;18.554;2022-12-05T03:15:47;98861.0;;;2.37;87.51
23361;BME280;11852;50.082;18.554;2022-12-05T03:16:56;98858.5;;;2.23;87.71
23361;BME280;11852;50.082;18.554;2022-12-05T03:18:10;98863.5;;;2.26;87.68
23361;BME280;11852;50.082;18.554;2022-12-05T03:19:17;98872.5;;;2.3;87.51
23361;BME280;11852;50.082;18.554;2022-12-05T03:23:16;98859.0;;;2.17;87.79
23361;BME280;11852;50.082;18.554;2022-12-05T03:24:23;98857.99;;;2.13;87.93
23361;BME280;11852;50.082;18.554;2022-12-05T03:34:13;98853.5;;;2.05;88.15
23361;BME280;11852;50.082;18.554;2022-12-05T03:36:45;98853.5;;;2.05;88.15
23361;BME280;11852;50.082;18.554;2022-12-05T03:52:12;98849.0;;;2.26;87.71
23361;BME280;11852;50.082;18.554;2022-12-05T03:55:42;98845.0;;;2.19;87.85
23361;BME280;11852;50.082;18.554;2022-12-05T04:12:25;98887.5;;;2.31;87.6
23361;BME280;11852;50.082;18.554;2022-12-05T04:18:02;98882.49;;;2.31;87.66
23361;BME280;11852;50.082;18.554;2022-12-05T04:23:58;98871.5;;;2.37;87.51
23361;BME280;11852;50.082;18.554;2022-12-05T04:34:30;98879.0;;;2.33;87.55
23361;BME280;11852;50.082;18.554;2022-12-05T04:39:25;98876.0;;;2.22;87.82
23361;BME280;11852;50.082;18.554;2022-12-05T04:43:32;98875.0;;;2.33;87.54
23361;BME280;11852;50.082;18.554;2022-12-05T04:53:31;98860.0;;;2.36;87.57
23361;BME280;11852;50.082;18.554;2022-12-05T04:54:41;98860.5;;;2.38;87.43
23361;BME280;11852;50.082;18.554;2022-12-05T04:58:53;98850.0;;;2.19;87.74
23361;BME280;11852;50.082;18.554;2022-12-05T05:00:00;98845.49;;;2.18;87.88
23361;BME280;11852;50.082;18.554;2022-12-05T05:04:38;98840.5;;;2.2;87.74
23361;BME280;11852;50.082;18.554;2022-12-05T05:05:45;98839.5;;;2.18;87.83
23361;BME280;11852;50.082;18.554;2022-12-05T05:06:51;98838.0;;;2.22;87.71
23361;BME280;11852;50.082;18.554;2022-12-05T05:07:58;98838.0;;;2.22;87.56
23361;BME280;11852;50.082;18.554;2022-12-05T05:09:07;98835.0;;;2.22;87.78
23361;BME280;11852;50.082;18.554;2022-12-05T05:10:15;98838.0;;;2.24;87.6
23361;BME280;11852;50.082;18.554;2022-12-05T05:11:24;98837.0;;;2.22;87.72
23361;BME280;11852;50.082;18.554;2022-12-05T05:15:14;98839.0;;;2.26;87.59
23361;BME280;11852;50.082;18.554;2022-12-05T05:21:12;98831.01;;;2.14;87.78
23361;BME280;11852;50.082;18.554;2022-12-05T05:22:20;98830.01;;;2.14;87.69
23361;BME280;11852;50.082;18.554;2022-12-05T05:26:49;98828.5;;;2.14;87.69
23361;BME280;11852;50.082;18.554;2022-12-05T05:32:25;98829.0;;;2.13;87.79
23361;BME280;11852;50.082;18.554;2022-12-05T05:33:33;98823.5;;;2.02;87.93
23361;BME280;11852;50.082;18.554;2022-12-05T05:34:41;98826.5;;;1.98;88.15
23361;BME280;11852;50.082;18.554;2022-12-05T05:38:44;98819.99;;;1.81;88.51
23361;BME280;11852;50.082;18.554;2022-12-05T05:39:50;98817.51;;;1.85;88.35
23361;BME280;11852;50.082;18.554;2022-12-05T05:43:51;98824.5;;;2.05;87.99
23361;BME280;11852;50.082;18.554;2022-12-05T05:48:06;98829.0;;;2.03;88.13
23361;BME280;11852;50.082;18.554;2022-12-05T05:49:15;98831.5;;;2.22;87.71
23361;BME280;11852;50.082;18.554;2022-12-05T05:50:22;98829.5;;;2.1;87.93
23361;BME280;11852;50.082;18.554;2022-12-05T05:59:54;98831.5;;;2.13;87.74
23361;BME280;11852;50.082;18.554;2022-12-05T06:04:30;98833.0;;;2.1;87.99
23361;BME280;11852;50.082;18.554;2022-12-05T06:10:11;98831.0;;;2.01;87.97
23361;BME280;11852;50.082;18.554;2022-12-05T06:11:20;98833.5;;;2.13;87.71
23361;BME280;11852;50.082;18.554;2022-12-05T06:12:27;98832.99;;;2.09;87.85
23361;BME280;11852;50.082;18.554;2022-12-05T06:13:34;98835.5;;;2.06;87.9
23361;BME280;11852;50.082;18.554;2022-12-05T06:16:17;98835.5;;;2.06;87.9
23361;BME280;11852;50.082;18.554;2022-12-05T06:21:38;98842.01;;;2.12;87.68
23361;BME280;11852;50.082;18.554;2022-12-05T06:23:43;98842.01;;;2.12;87.68
23361;BME280;11852;50.082;18.554;2022-12-05T06:24:51;98837.5;;;2.03;87.84
23361;BME280;11852;50.082;18.554;2022-12-05T06:28:11;98837.5;;;2.03;87.84
23361;BME280;11852;50.082;18.554;2022-12-05T06:29:33;98842.01;;;2.03;87.84
23361;BME280;11852;50.082;18.554;2022-12-05T06:34:06;98838.5;;;2.13;87.69
23361;BME280;11852;50.082;18.554;2022-12-05T06:35:14;98837.0;;;2.1;87.82
23361;BME280;11852;50.082;18.554;2022-12-05T06:36:21;98836.0;;;2.03;88.04
23361;BME280;11852;50.082;18.554;2022-12-05T06:37:28;98836.5;;;2.03;87.9
23361;BME280;11852;50.082;18.554;2022-12-05T06:38:36;98836.5;;;2.14;87.65
23361;BME280;11852;50.082;18.554;2022-12-05T06:39:45;98842.01;;;2.11;87.9
23361;BME280;11852;50.082;18.554;2022-12-05T06:43:57;98839.5;;;2.03;87.93
23361;BME280;11852;50.082;18.554;2022-12-05T06:45:06;98842.5;;;1.98;88.01
23361;BME280;11852;50.082;18.554;2022-12-05T06:46:14;98847.0;;;1.98;87.92
23361;BME280;11852;50.082;18.554;2022-12-05T06:47:22;98849.5;;;2.05;87.76
23361;BME280;11852;50.082;18.554;2022-12-05T06:48:31;98848.0;;;2.09;87.79
23361;BME280;11852;50.082;18.554;2022-12-05T06:49:39;98854.0;;;2.18;87.64
23361;BME280;11852;50.082;18.554;2022-12-05T06:50:48;98857.49;;;2.15;87.72
23361;BME280;11852;50.082;18.554;2022-12-05T06:51:55;98856.5;;;2.15;87.75
23361;BME280;11852;50.082;18.554;2022-12-05T06:53:03;98854.51;;;2.2;87.57
23361;BME280;11852;50.082;18.554;2022-12-05T06:54:12;98852.0;;;2.24;87.6
23361;BME280;11852;50.082;18.554;2022-12-05T06:55:19;98851.5;;;2.26;87.53
23361;BME280;11852;50.082;18.554;2022-12-05T06:56:26;98849.5;;;2.22;87.57
23361;BME280;11852;50.082;18.554;2022-12-05T06:57:34;98852.0;;;2.22;87.6
23361;BME280;11852;50.082;18.554;2022-12-05T06:58:43;98850.5;;;2.26;87.51
23361;BME280;11852;50.082;18.554;2022-12-05T07:05:53;98856.5;;;2.17;87.71
23361;BME280;11852;50.082;18.554;2022-12-05T07:10:23;98859.5;;;2.17;87.71
23361;BME280;11852;50.082;18.554;2022-12-05T07:16:20;98850.0;;;2.63;87.54
23361;BME280;11852;50.082;18.554;2022-12-05T07:17:36;98849.5;;;2.59;87.63
23361;BME280;11852;50.082;18.554;2022-12-05T07:20:24;98849.5;;;2.59;87.63
23361;BME280;11852;50.082;18.554;2022-12-05T07:21:34;98851.0;;;2.43;87.87
23361;BME280;11852;50.082;18.554;2022-12-05T07:22:42;98861.0;;;2.52;87.53
23361;BME280;11852;50.082;18.554;2022-12-05T07:27:12;98871.0;;;2.43;87.63
23361;BME280;11852;50.082;18.554;2022-12-05T07:31:43;98874.5;;;2.5;87.58
23361;BME280;11852;50.082;18.554;2022-12-05T07:35:43;98872.5;;;2.45;87.75
23361;BME280;11852;50.082;18.554;2022-12-05T07:38:24;98872.5;;;2.44;87.63
23361;BME280;11852;50.082;18.554;2022-12-05T07:39:32;98878.5;;;2.52;87.62
23361;BME280;11852;50.082;18.554;2022-12-05T07:40:39;98877.0;;;2.47;87.64
23361;BME280;11852;50.082;18.554;2022-12-05T07:41:46;98878.0;;;2.41;87.85
23361;BME280;11852;50.082;18.554;2022-12-05T07:42:55;98880.51;;;2.5;87.54
23361;BME280;11852;50.082;18.554;2022-12-05T07:44:25;98881.5;;;2.57;87.37
23361;BME280;11852;50.082;18.554;2022-12-05T07:45:33;98882.5;;;2.55;87.44
23361;BME280;11852;50.082;18.554;2022-12-05T07:49:34;98881.99;;;2.6;87.38
23361;BME280;11852;50.082;18.554;2022-12-05T07:50:41;98871.0;;;2.48;87.6
23361;BME280;11852;50.082;18.554;2022-12-05T07:51:49;98872.0;;;2.5;87.65
23361;BME280;11852;50.082;18.554;2022-12-05T07:52:57;98873.5;;;2.54;87.5
23361;BME280;11852;50.082;18.554;2022-12-05T07:54:04;98872.5;;;2.52;87.63
23361;BME280;11852;50.082;18.554;2022-12-05T07:55:12;98873.0;;;2.51;87.62
23361;BME280;11852;50.082;18.554;2022-12-05T07:56:20;98874.5;;;2.44;87.79
23361;BME280;11852;50.082;18.554;2022-12-05T07:57:29;98877.5;;;2.38;87.9
23361;BME280;11852;50.082;18.554;2022-12-05T07:58:47;98879.0;;;2.38;87.9
23361;BME280;11852;50.082;18.554;2022-12-05T07:59:54;98881.99;;;2.48;87.72
23361;BME280;11852;50.082;18.554;2022-12-05T08:01:08;98882.5;;;2.56;87.6
23361;BME280;11852;50.082;18.554;2022-12-05T08:02:15;98883.5;;;2.49;87.76
23361;BME280;11852;50.082;18.554;2022-12-05T08:03:23;98886.5;;;2.45;87.81
23361;BME280;11852;50.082;18.554;2022-12-05T08:04:31;98887.0;;;2.43;87.85
23361;BME280;11852;50.082;18.554;2022-12-05T08:05:40;98887.5;;;2.58;87.46
23361;BME280;11852;50.082;18.554;2022-12-05T08:06:47;98887.0;;;2.61;87.56
23361;BME280;11852;50.082;18.554;2022-12-05T08:10:07;98887.0;;;2.61;87.56
23361;BME280;11852;50.082;18.554;2022-12-05T08:11:19;98885.0;;;2.48;87.94
23361;BME280;11852;50.082;18.554;2022-12-05T08:12:25;98881.5;;;2.47;87.9
23361;BME280;11852;50.082;18.554;2022-12-05T08:13:33;98881.5;;;2.52;87.71
23361;BME280;11852;50.082;18.554;2022-12-05T08:14:41;98882.0;;;2.49;87.88
23361;BME280;11852;50.082;18.554;2022-12-05T08:15:49;98879.51;;;2.59;87.59
23361;BME280;11852;50.082;18.554;2022-12-05T08:16:56;98878.5;;;2.58;87.74
23361;BME280;11852;50.082;18.554;2022-12-05T08:19:28;98879.51;;;2.54;87.92
23361;BME280;11852;50.082;18.554;2022-12-05T08:20:36;98874.0;;;2.48;88.06
23361;BME280;11852;50.082;18.554;2022-12-05T08:21:43;98874.5;;;2.45;88.04
23361;BME280;11852;50.082;18.554;2022-12-05T08:22:51;98878.5;;;2.41;88.17
23361;BME280;11852;50.082;18.554;2022-12-05T08:24:13;98878.0;;;2.41;88.17
23361;BME280;11852;50.082;18.554;2022-12-05T08:25:20;98877.0;;;2.32;88.07
23361;BME280;11852;50.082;18.554;2022-12-05T08:26:30;98878.5;;;2.34;88.04
23361;BME280;11852;50.082;18.554;2022-12-05T08:27:38;98878.0;;;2.28;88.27
23361;BME280;11852;50.082;18.554;2022-12-05T08:28:46;98880.51;;;2.32;88.15
23361;BME280;11852;50.082;18.554;2022-12-05T08:29:54;98881.0;;;2.41;87.97
23361;BME280;11852;50.082;18.554;2022-12-05T08:31:09;98879.51;;;2.39;88.01
23361;BME280;11852;50.082;18.554;2022-12-05T08:32:17;98877.5;;;2.5;87.9
23361;BME280;11852;50.082;18.554;2022-12-05T08:33:24;98876.5;;;2.53;87.82
23361;BME280;11852;50.082;18.554;2022-12-05T08:36:15;98876.5;;;2.53;87.82
23361;BME280;11852;50.082;18.554;2022-12-05T08:37:22;98876.5;;;2.55;87.86
23361;BME280;11852;50.082;18.554;2022-12-05T08:38:31;98877.5;;;2.6;87.86
23361;BME280;11852;50.082;18.554;2022-12-05T08:39:38;98880.51;;;2.53;88.05
23361;BME280;11852;50.082;18.554;2022-12-05T08:40:46;98877.0;;;2.56;88.01
23361;BME280;11852;50.082;18.554;2022-12-05T08:41:54;98882.5;;;2.61;88.01
23361;BME280;11852;50.082;18.554;2022-12-05T08:43:03;98887.0;;;2.66;87.85
23361;BME280;11852;50.082;18.554;2022-12-05T08:44:11;98889.0;;;2.76;87.65
23361;BME280;11852;50.082;18.554;2022-12-05T08:45:18;98891.0;;;2.85;87.58
23361;BME280;11852;50.082;18.554;2022-12-05T08:46:28;98891.0;;;2.87;87.71
23361;BME280;11852;50.082;18.554;2022-12-05T08:47:35;98894.49;;;2.85;87.74
23361;BME280;11852;50.082;18.554;2022-12-05T08:48:45;98891.5;;;2.9;87.6
23361;BME280;11852;50.082;18.554;2022-12-05T08:49:53;98894.49;;;2.87;87.69
23361;BME280;11852;50.082;18.554;2022-12-05T08:51:07;98895.0;;;2.93;87.54
23361;BME280;11852;50.082;18.554;2022-12-05T08:52:11;98893.99;;;2.88;87.74
23361;BME280;11852;50.082;18.554;2022-12-05T08:53:19;98893.5;;;2.97;87.49
23361;BME280;11852;50.082;18.554;2022-12-05T08:54:27;98896.5;;;2.97;87.6
23361;BME280;11852;50.082;18.554;2022-12-05T08:55:35;98894.49;;;2.96;87.49
23361;BME280;11852;50.082;18.554;2022-12-05T08:59:36;98893.5;;;3.0;87.49
23361;BME280;11852;50.082;18.554;2022-12-05T09:00:43;98889.0;;;2.99;87.65
23361;BME280;11852;50.082;18.554;2022-12-05T09:04:57;98888.5;;;3.16;87.42
23361;BME280;11852;50.082;18.554;2022-12-05T09:06:09;98889.0;;;3.2;87.5
23361;BME280;11852;50.082;18.554;2022-12-05T09:07:16;98888.0;;;3.21;87.51
23361;BME280;11852;50.082;18.554;2022-12-05T09:08:24;98891.0;;;3.28;87.38
23361;BME280;11852;50.082;18.554;2022-12-05T09:09:32;98891.5;;;3.33;87.43
23361;BME280;11852;50.082;18.554;2022-12-05T09:10:40;98890.0;;;3.36;87.4
23361;BME280;11852;50.082;18.554;2022-12-05T09:11:48;98890.0;;;3.42;87.29
23361;BME280;11852;50.082;18.554;2022-12-05T09:12:57;98888.5;;;3.41;87.28
23361;BME280;11852;50.082;18.554;2022-12-05T09:14:04;98889.0;;;3.42;87.35
23361;BME280;11852;50.082;18.554;2022-12-05T09:18:34;98891.0;;;3.37;87.43
23361;BME280;11852;50.082;18.554;2022-12-05T09:19:41;98890.0;;;3.42;87.38
23361;BME280;11852;50.082;18.554;2022-12-05T09:20:50;98893.5;;;3.59;87.19
23361;BME280;11852;50.082;18.554;2022-12-05T09:21:59;98893.5;;;3.63;87.26
23361;BME280;11852;50.082;18.554;2022-12-05T09:23:08;98901.0;;;3.62;87.29
23361;BME280;11852;50.082;18.554;2022-12-05T09:24:16;98899.5;;;3.67;87.17
23361;BME280;11852;50.082;18.554;2022-12-05T09:25:23;98897.0;;;3.73;87.13
23361;BME280;11852;50.082;18.554;2022-12-05T09:26:32;98894.0;;;3.76;87.1
23361;BME280;11852;50.082;18.554;2022-12-05T09:28:51;98894.0;;;3.76;87.1
23361;BME280;11852;50.082;18.554;2022-12-05T09:29:59;98889.0;;;3.75;87.1
23361;BME280;11852;50.082;18.554;2022-12-05T09:31:07;98889.5;;;3.65;87.21
23361;BME280;11852;50.082;18.554;2022-12-05T09:32:14;98886.0;;;3.63;87.19
23361;BME280;11852;50.082;18.554;2022-12-05T09:33:22;98885.5;;;3.62;87.08
23361;BME280;11852;50.082;18.554;2022-12-05T09:34:29;98885.0;;;3.62;87.07
23361;BME280;11852;50.082;18.554;2022-12-05T09:35:40;98879.0;;;3.65;86.99
23361;BME280;11852;50.082;18.554;2022-12-05T09:40:15;98880.0;;;3.77;86.9
23361;BME280;11852;50.082;18.554;2022-12-05T09:44:01;98877.0;;;3.82;86.93
23361;BME280;11852;50.082;18.554;2022-12-05T09:49:17;98876.0;;;3.78;86.99
23361;BME280;11852;50.082;18.554;2022-12-05T09:51:43;98875.5;;;3.86;86.83
23361;BME280;11852;50.082;18.554;2022-12-05T09:54:07;98876.5;;;3.71;87.17
23361;BME280;11852;50.082;18.554;2022-12-05T09:55:16;98878.5;;;3.72;87.17
23361;BME280;11852;50.082;18.554;2022-12-05T09:56:28;98878.5;;;3.72;87.17
23361;BME280;11852;50.082;18.554;2022-12-05T09:57:36;98880.0;;;3.72;87.17
23361;BME280;11852;50.082;18.554;2022-12-05T09:58:52;98879.5;;;3.73;87.17
23361;BME280;11852;50.082;18.554;2022-12-05T09:59:59;98880.0;;;3.72;87.17
23361;BME280;11852;50.082;18.554;2022-12-05T10:02:29;98875.5;;;3.76;87.03
23361;BME280;11852;50.082;18.554;2022-12-05T10:03:40;98873.5;;;3.76;87.03
23361;BME280;11852;50.082;18.554;2022-12-05T10:10:42;98859.5;;;3.73;87.35
23361;BME280;11852;50.082;18.554;2022-12-05T10:15:58;98863.0;;;3.75;87.35
23361;BME280;11852;50.082;18.554;2022-12-05T10:17:14;98862.5;;;3.75;87.35
23361;BME280;11852;50.082;18.554;2022-12-05T10:19:36;98871.5;;;3.79;87.25
23361;BME280;11852;50.082;18.554;2022-12-05T10:22:36;98865.0;;;3.86;87.15
23361;BME280;11852;50.082;18.554;2022-12-05T10:24:54;98866.5;;;3.86;87.15
23361;BME280;11852;50.082;18.554;2022-12-05T10:26:02;98867.5;;;3.87;87.15
23361;BME280;11852;50.082;18.554;2022-12-05T10:27:17;98861.5;;;3.91;87.18
23361;BME280;11852;50.082;18.554;2022-12-05T10:30:39;98859.5;;;3.9;87.18
23361;BME280;11852;50.082;18.554;2022-12-05T10:31:47;98858.5;;;3.93;87.18
23361;BME280;11852;50.082;18.554;2022-12-05T10:34:28;98853.0;;;3.92;87.19
23361;BME280;11852;50.082;18.554;2022-12-05T10:35:35;98846.0;;;3.85;87.21
23361;BME280;11852;50.082;18.554;2022-12-05T10:38:09;98846.5;;;3.91;87.21
23361;BME280;11852;50.082;18.554;2022-12-05T10:39:14;98848.0;;;3.93;87.24
23361;BME280;11852;50.082;18.554;2022-12-05T10:40:22;98846.0;;;3.99;87.17
23361;BME280;11852;50.082;18.554;2022-12-05T10:41:30;98846.0;;;3.99;87.19
23361;BME280;11852;50.082;18.554;2022-12-05T10:42:38;98847.5;;;3.97;87.15
23361;BME280;11852;50.082;18.554;2022-12-05T10:43:47;98852.0;;;3.91;87.27
23361;BME280;11852;50.082;18.554;2022-12-05T10:44:56;98853.5;;;3.93;87.19
23361;BME280;11852;50.082;18.554;2022-12-05T10:46:03;98858.5;;;3.99;87.13
23361;BME280;11852;50.082;18.554;2022-12-05T10:47:11;98857.49;;;4.03;87.18
23361;BME280;11852;50.082;18.554;2022-12-05T10:48:20;98854.0;;;4.03;87.18
23361;BME280;11852;50.082;18.554;2022-12-05T10:49:27;98855.5;;;4.03;87.18
23361;BME280;11852;50.082;18.554;2022-12-05T10:50:35;98856.5;;;4.06;87.18
23361;BME280;11852;50.082;18.554;2022-12-05T10:51:43;98857.49;;;4.07;87.18
23361;BME280;11852;50.082;18.554;2022-12-05T10:52:51;98855.0;;;4.07;87.18
23361;BME280;11852;50.082;18.554;2022-12-05T10:53:58;98853.5;;;4.08;87.18
23361;BME280;11852;50.082;18.554;2022-12-05T10:55:06;98854.0;;;4.07;87.18
23361;BME280;11852;50.082;18.554;2022-12-05T10:57:33;98855.5;;;4.07;87.18
23361;BME280;11852;50.082;18.554;2022-12-05T10:58:47;98853.5;;;4.07;87.18
23361;BME280;11852;50.082;18.554;2022-12-05T10:59:49;98854.0;;;4.19;87.13
23361;BME280;11852;50.082;18.554;2022-12-05T11:00:59;98853.0;;;4.16;87.1
23361;BME280;11852;50.082;18.554;2022-12-05T11:02:11;98850.0;;;4.15;87.04
23361;BME280;11852;50.082;18.554;2022-12-05T11:05:52;98849.5;;;4.18;87.08
23361;BME280;11852;50.082;18.554;2022-12-05T11:07:04;98848.0;;;4.18;87.13
23361;BME280;11852;50.082;18.554;2022-12-05T11:08:19;98848.0;;;4.18;87.1
23361;BME280;11852;50.082;18.554;2022-12-05T11:09:30;98848.0;;;4.09;87.38
23361;BME280;11852;50.082;18.554;2022-12-05T11:10:36;98853.5;;;4.11;87.13
23361;BME280;11852;50.082;18.554;2022-12-05T11:11:44;98849.5;;;4.16;87.07
23361;BME280;11852;50.082;18.554;2022-12-05T11:12:50;98850.5;;;4.2;87.12
23361;BME280;11852;50.082;18.554;2022-12-05T11:13:59;98850.5;;;4.21;87.17
23361;BME280;11852;50.082;18.554;2022-12-05T11:16:28;98846.0;;;4.16;87.37
23361;BME280;11852;50.082;18.554;2022-12-05T11:17:36;98846.0;;;4.22;87.23
23361;BME280;11852;50.082;18.554;2022-12-05T11:18:42;98846.0;;;4.15;87.42
23361;BME280;11852;50.082;18.554;2022-12-05T11:19:50;98848.5;;;4.09;87.57
23361;BME280;11852;50.082;18.554;2022-12-05T11:22:14;98844.49;;;4.26;87.27
23361;BME280;11852;50.082;18.554;2022-12-05T11:24:35;98845.49;;;4.26;87.47
23361;BME280;11852;50.082;18.554;2022-12-05T11:25:39;98845.49;;;4.21;87.6
23361;BME280;11852;50.082;18.554;2022-12-05T11:26:47;98844.0;;;4.34;87.32
23361;BME280;11852;50.082;18.554;2022-12-05T11:27:58;98843.0;;;4.39;87.25
23361;BME280;11852;50.082;18.554;2022-12-05T11:29:03;98842.0;;;4.41;87.23
23361;BME280;11852;50.082;18.554;2022-12-05T11:31:25;98845.49;;;4.43;87.08
23361;BME280;11852;50.082;18.554;2022-12-05T11:32:30;98846.5;;;4.39;87.11
23361;BME280;11852;50.082;18.554;2022-12-05T11:33:38;98845.49;;;4.39;87.08
23361;BME280;11852;50.082;18.554;2022-12-05T11:35:08;98846.0;;;4.49;87.01
23361;BME280;11852;50.082;18.554;2022-12-05T11:38:45;98840.5;;;4.49;87.18